Stockholm, Texas
Current Conditions -  °F | °C
As of 8:21 AM on Saturday 20 Dec 2014 (Local Time) from KHRL Reporting Station
Overcast Overcast  
Wind Chill: 57°   Ceiling: 700
Heat Index: 57°   Visibility: 10mi
Dew Point: 55°   Wind: 13mph
Humidity: 94%   Direction: 350°N
Pressure: 30.16"   Gusts: NA
Location:  26.4075°N, 97.7282°W
Report Text: KHRL 201421Z 35011KT 10SM BKN007 OVC021 14/13 A3016 RMK AO2 CIG 006V011
Loading
Personal Weather Stations






























Interactive Weather Map New forecast layout! Learn more

10-Day Weather Forecast

Advertisements
Track Severe Weather on mobile